<?xml version="1.0" encoding="UTF-8" standalone="no" ?>
<gpx xmlns="http://www.topografix.com/GPX/1/1" xmlns:xsi="http://www.w3.org/2001/XMLSchema-instance" xsi:schemaLocation="http://www.topografix.com/GPX/1/1 http://www.topografix.com/GPX/1/1/gpx.xsd" version="1.1" creator="VisuGPX - https://www.visugpx.com">
  <metadata>
    <name>14 juillet 2025</name>
  </metadata>
  <trk>
    <name><![CDATA[Rouperroux 14  juillet 2025 12 km-15072961]]></name>
    <extensions>
      <line xmlns="http://www.topografix.com/GPX/gpx_style/0/2">
        <color>0000FF</color>
        <width>4</width>
      </line>
    </extensions>
    <trkseg>
      <trkpt lat="48.54684" lon="-0.07501">
        <ele>289</ele>
        <time>2025-07-08T12:45:32Z</time>
      </trkpt>
      <trkpt lat="48.54629" lon="-0.07313">
        <ele>287</ele>
        <time>2025-07-08T12:47:21Z</time>
      </trkpt>
      <trkpt lat="48.54477" lon="-0.06972">
        <ele>270</ele>
        <time>2025-07-08T12:50:59Z</time>
      </trkpt>
      <trkpt lat="48.54442" lon="-0.06805">
        <ele>269</ele>
        <time>2025-07-08T12:52:32Z</time>
      </trkpt>
      <trkpt lat="48.54386" lon="-0.0674">
        <ele>270</ele>
        <time>2025-07-08T12:53:28Z</time>
      </trkpt>
      <trkpt lat="48.54231" lon="-0.06516">
        <ele>263</ele>
        <time>2025-07-08T12:56:20Z</time>
      </trkpt>
      <trkpt lat="48.54181" lon="-0.06287">
        <ele>259</ele>
        <time>2025-07-08T12:58:28Z</time>
      </trkpt>
      <trkpt lat="48.54256" lon="-0.05987">
        <ele>260</ele>
        <time>2025-07-08T13:01:18Z</time>
      </trkpt>
      <trkpt lat="48.54374" lon="-0.05998">
        <ele>259</ele>
        <time>2025-07-08T13:02:52Z</time>
      </trkpt>
      <trkpt lat="48.54606" lon="-0.06046">
        <ele>276</ele>
        <time>2025-07-08T13:06:00Z</time>
      </trkpt>
      <trkpt lat="48.54615" lon="-0.05914">
        <ele>276</ele>
        <time>2025-07-08T13:07:10Z</time>
      </trkpt>
      <trkpt lat="48.54576" lon="-0.05634">
        <ele>273</ele>
        <time>2025-07-08T13:09:42Z</time>
      </trkpt>
      <trkpt lat="48.5459" lon="-0.0555">
        <ele>272</ele>
        <time>2025-07-08T13:10:28Z</time>
      </trkpt>
      <trkpt lat="48.54767" lon="-0.05539">
        <ele>280</ele>
        <time>2025-07-08T13:12:50Z</time>
      </trkpt>
      <trkpt lat="48.54931" lon="-0.05521">
        <ele>302</ele>
        <time>2025-07-08T13:15:01Z</time>
      </trkpt>
      <trkpt lat="48.55126" lon="-0.05518">
        <ele>323</ele>
        <time>2025-07-08T13:17:38Z</time>
      </trkpt>
      <trkpt lat="48.55115" lon="-0.0513">
        <ele>319</ele>
        <time>2025-07-08T13:21:03Z</time>
      </trkpt>
      <trkpt lat="48.55107" lon="-0.0464">
        <ele>323</ele>
        <time>2025-07-08T13:25:23Z</time>
      </trkpt>
      <trkpt lat="48.55232" lon="-0.04415">
        <ele>351</ele>
        <time>2025-07-08T13:27:59Z</time>
      </trkpt>
      <trkpt lat="48.55286" lon="-0.04055">
        <ele>381</ele>
        <time>2025-07-08T13:31:14Z</time>
      </trkpt>
      <trkpt lat="48.55503" lon="-0.04021">
        <ele>410</ele>
        <time>2025-07-08T13:34:09Z</time>
      </trkpt>
      <trkpt lat="48.55817" lon="-0.03338">
        <ele>400</ele>
        <time>2025-07-08T13:41:30Z</time>
      </trkpt>
      <trkpt lat="48.55913" lon="-0.034">
        <ele>394</ele>
        <time>2025-07-08T13:42:53Z</time>
      </trkpt>
      <trkpt lat="48.56142" lon="-0.03678">
        <ele>379</ele>
        <time>2025-07-08T13:46:49Z</time>
      </trkpt>
      <trkpt lat="48.56169" lon="-0.03805">
        <ele>380</ele>
        <time>2025-07-08T13:47:59Z</time>
      </trkpt>
      <trkpt lat="48.56187" lon="-0.03938">
        <ele>378</ele>
        <time>2025-07-08T13:49:11Z</time>
      </trkpt>
      <trkpt lat="48.56246" lon="-0.0409">
        <ele>370</ele>
        <time>2025-07-08T13:50:45Z</time>
      </trkpt>
      <trkpt lat="48.56286" lon="-0.04307">
        <ele>359</ele>
        <time>2025-07-08T13:52:44Z</time>
      </trkpt>
      <trkpt lat="48.56384" lon="-0.046">
        <ele>328</ele>
        <time>2025-07-08T13:55:38Z</time>
      </trkpt>
      <trkpt lat="48.56459" lon="-0.04711">
        <ele>325</ele>
        <time>2025-07-08T13:57:02Z</time>
      </trkpt>
      <trkpt lat="48.56478" lon="-0.04845">
        <ele>322</ele>
        <time>2025-07-08T13:58:15Z</time>
      </trkpt>
      <trkpt lat="48.56748" lon="-0.04774">
        <ele>308</ele>
        <time>2025-07-08T14:01:54Z</time>
      </trkpt>
      <trkpt lat="48.56042" lon="-0.04989">
        <ele>349</ele>
        <time>2025-07-08T14:11:31Z</time>
      </trkpt>
      <trkpt lat="48.55886" lon="-0.05058">
        <ele>363</ele>
        <time>2025-07-08T14:13:41Z</time>
      </trkpt>
      <trkpt lat="48.55782" lon="-0.05083">
        <ele>379</ele>
        <time>2025-07-08T14:15:05Z</time>
      </trkpt>
      <trkpt lat="48.55556" lon="-0.05266">
        <ele>389</ele>
        <time>2025-07-08T14:18:30Z</time>
      </trkpt>
      <trkpt lat="48.55574" lon="-0.05528">
        <ele>393</ele>
        <time>2025-07-08T14:20:50Z</time>
      </trkpt>
      <trkpt lat="48.55736" lon="-0.06265">
        <ele>396</ele>
        <time>2025-07-08T14:27:42Z</time>
      </trkpt>
      <trkpt lat="48.55801" lon="-0.06583">
        <ele>406</ele>
        <time>2025-07-08T14:30:38Z</time>
      </trkpt>
      <trkpt lat="48.55858" lon="-0.06831">
        <ele>403</ele>
        <time>2025-07-08T14:32:57Z</time>
      </trkpt>
      <trkpt lat="48.55945" lon="-0.07236">
        <ele>402</ele>
        <time>2025-07-08T14:36:43Z</time>
      </trkpt>
      <trkpt lat="48.56034" lon="-0.07638">
        <ele>394</ele>
        <time>2025-07-08T14:40:27Z</time>
      </trkpt>
      <trkpt lat="48.56079" lon="-0.07846">
        <ele>384</ele>
        <time>2025-07-08T14:42:23Z</time>
      </trkpt>
      <trkpt lat="48.55983" lon="-0.07961">
        <ele>374</ele>
        <time>2025-07-08T14:44:01Z</time>
      </trkpt>
      <trkpt lat="48.55946" lon="-0.08043">
        <ele>368</ele>
        <time>2025-07-08T14:44:54Z</time>
      </trkpt>
      <trkpt lat="48.55873" lon="-0.08218">
        <ele>356</ele>
        <time>2025-07-08T14:46:44Z</time>
      </trkpt>
      <trkpt lat="48.55824" lon="-0.08274">
        <ele>349</ele>
        <time>2025-07-08T14:47:33Z</time>
      </trkpt>
      <trkpt lat="48.5569" lon="-0.08251">
        <ele>336</ele>
        <time>2025-07-08T14:49:21Z</time>
      </trkpt>
      <trkpt lat="48.55577" lon="-0.08243">
        <ele>325</ele>
        <time>2025-07-08T14:50:51Z</time>
      </trkpt>
      <trkpt lat="48.55402" lon="-0.08256">
        <ele>309</ele>
        <time>2025-07-08T14:53:12Z</time>
      </trkpt>
      <trkpt lat="48.55372" lon="-0.0807">
        <ele>314</ele>
        <time>2025-07-08T14:54:53Z</time>
      </trkpt>
      <trkpt lat="48.55149" lon="-0.08192">
        <ele>296</ele>
        <time>2025-07-08T14:58:03Z</time>
      </trkpt>
      <trkpt lat="48.54987" lon="-0.08239">
        <ele>288</ele>
        <time>2025-07-08T15:00:15Z</time>
      </trkpt>
      <trkpt lat="48.54943" lon="-0.08328">
        <ele>284</ele>
        <time>2025-07-08T15:01:14Z</time>
      </trkpt>
      <trkpt lat="48.54906" lon="-0.08466">
        <ele>280</ele>
        <time>2025-07-08T15:02:33Z</time>
      </trkpt>
      <trkpt lat="48.54792" lon="-0.08505">
        <ele>275</ele>
        <time>2025-07-08T15:04:07Z</time>
      </trkpt>
      <trkpt lat="48.54739" lon="-0.08466">
        <ele>273</ele>
        <time>2025-07-08T15:04:54Z</time>
      </trkpt>
      <trkpt lat="48.54713" lon="-0.08261">
        <ele>274</ele>
        <time>2025-07-08T15:06:44Z</time>
      </trkpt>
      <trkpt lat="48.54717" lon="-0.07998">
        <ele>283</ele>
        <time>2025-07-08T15:09:04Z</time>
      </trkpt>
      <trkpt lat="48.54673" lon="-0.07729">
        <ele>288</ele>
        <time>2025-07-08T15:11:31Z</time>
      </trkpt>
      <trkpt lat="48.54686" lon="-0.07546">
        <ele>289</ele>
        <time>2025-07-08T15:13:08Z</time>
      </trkpt>
    </trkseg>
  </trk>
</gpx>